Edmonton International Airport
CYEG : now visible

Airfield :











YOU CAN JOIN US ON...

 
LOGIN :

Register | Disclaimer

   EN    FR    IT 

 









Legend :    VFR   Marginal VFR   IFR   Intensive IFR   Very Intensive IFR
Visi :
Ceiling :
>= 8 km
>= 3000ft
5 to 8 km
1000 to 3000 ft
1500m to 5 km
500 to 1000 ft
800 to 1500m
200 to 500 ft
< 800m
< 200 ft
Symbols :   Thunderstorms  Fog  Heavy snow  Heavy precipitations  Wind > 20 kt






- Airport Elevation : 2373 ft
- IATA code : YEG


CYEG - Edmonton International

CURRENT METAR :
  • 250800Z 19003KT 20SM BKN140 13/08 A2986 RMK AC6 SLP117 DENSITY ALT 2700FT

EXPIRED METARs :
  • 250700Z 20005KT 20SM FEW100 BKN140 13/08 A2987 RMK AC2AC4 SLP118 DENSITY ALT 2800FT
  • 250600Z 19004KT 20SM SCT100 BKN140 13/07 A2987 RMK AC2AC5 SLP120 DENSITY ALT 2800FT

TAF TAF CYEG
Valid from the 25 at 09:00 until the 26 at 06:00 UTC


250838Z 2509/2606 VRB03KT P6SM FEW080
BECMG 2510/2512 25006KT
FM251600 28008KT P6SM SCT140
FM252000 30008KT P6SM BKN070 BKN120
TEMPO 2522/2606 P6SM VCSH OVC060
BECMG 2604/2606 28006KT RMK NXT FCST BY 251200Z
CZEG FIR / North America



MET'MAP, your aeronautical weather chart ! - Copyright ORBIFLY December 2007 - Disclaimer

ORBIFLY MET'MAP TEAM :

Programming & Development : Alexandra Zaïnal
Concept & original design : Baudouin d'Aumeries
Assistance for programming : Marc-Olivier Méhu
Technical & hardware support : Manuel Goepfert

Contact : metmap@orbifly.com




SOURCES & CREDITS :

   NOAA       Earth
Advisory